sensor_id;sensor_type;location;lat;lon;timestamp;pressure;altitude;pressure_sealevel;temperature;humidity
9110;BME280;4590;51.462;6.692;2023-05-07T00:01:49;101403.56;;;18.12;62.25
9110;BME280;4590;51.462;6.692;2023-05-07T00:04:52;101405.09;;;18.10;62.42
9110;BME280;4590;51.462;6.692;2023-05-07T00:07:17;101406.13;;;18.17;62.24
9110;BME280;4590;51.462;6.692;2023-05-07T00:09:43;101405.81;;;18.19;62.27
9110;BME280;4590;51.462;6.692;2023-05-07T00:12:08;101398.59;;;18.18;62.55
9110;BME280;4590;51.462;6.692;2023-05-07T00:14:33;101399.75;;;18.17;62.59
9110;BME280;4590;51.462;6.692;2023-05-07T00:16:58;101402.41;;;18.13;62.48
9110;BME280;4590;51.462;6.692;2023-05-07T00:19:24;101393.56;;;18.11;62.91
9110;BME280;4590;51.462;6.692;2023-05-07T00:21:49;101395.78;;;18.06;62.81
9110;BME280;4590;51.462;6.692;2023-05-07T00:24:21;101388.28;;;17.98;62.88
9110;BME280;4590;51.462;6.692;2023-05-07T00:26:46;101386.66;;;17.97;63.22
9110;BME280;4590;51.462;6.692;2023-05-07T00:29:11;101386.53;;;17.93;63.53
9110;BME280;4590;51.462;6.692;2023-05-07T00:31:54;101386.41;;;17.90;63.61
9110;BME280;4590;51.462;6.692;2023-05-07T00:34:20;101380.59;;;17.95;63.50
9110;BME280;4590;51.462;6.692;2023-05-07T00:36:45;101379.81;;;17.94;63.27
9110;BME280;4590;51.462;6.692;2023-05-07T00:39:10;101374.59;;;17.93;63.29
9110;BME280;4590;51.462;6.692;2023-05-07T00:42:06;101379.53;;;17.87;63.53
9110;BME280;4590;51.462;6.692;2023-05-07T00:44:31;101376.56;;;17.92;63.43
9110;BME280;4590;51.462;6.692;2023-05-07T00:46:57;101378.53;;;17.92;63.49
9110;BME280;4590;51.462;6.692;2023-05-07T00:49:38;101371.34;;;17.91;63.45
9110;BME280;4590;51.462;6.692;2023-05-07T00:52:06;101366.81;;;17.98;63.33
9110;BME280;4590;51.462;6.692;2023-05-07T01:01:08;101372.34;;;18.07;63.27
9110;BME280;4590;51.462;6.692;2023-05-07T01:03:33;101363.97;;;18.07;63.24
9110;BME280;4590;51.462;6.692;2023-05-07T01:05:59;101364.31;;;18.05;63.17
9110;BME280;4590;51.462;6.692;2023-05-07T01:08:26;101360.25;;;18.03;63.55
9110;BME280;4590;51.462;6.692;2023-05-07T01:10:55;101367.66;;;17.99;63.68
9110;BME280;4590;51.462;6.692;2023-05-07T01:13:21;101365.19;;;17.97;63.60
9110;BME280;4590;51.462;6.692;2023-05-07T01:15:46;101359.53;;;17.94;63.66
9110;BME280;4590;51.462;6.692;2023-05-07T01:18:13;101353.94;;;17.94;63.77
9110;BME280;4590;51.462;6.692;2023-05-07T01:20:39;101348.81;;;17.96;63.34
9110;BME280;4590;51.462;6.692;2023-05-07T01:23:05;101362.75;;;17.96;63.68
9110;BME280;4590;51.462;6.692;2023-05-07T01:25:32;101357.66;;;17.98;63.65
9110;BME280;4590;51.462;6.692;2023-05-07T01:27:57;101352.09;;;17.98;63.70
9110;BME280;4590;51.462;6.692;2023-05-07T01:30:25;101359.16;;;17.95;63.76
9110;BME280;4590;51.462;6.692;2023-05-07T01:39:10;101361.41;;;17.81;64.25
9110;BME280;4590;51.462;6.692;2023-05-07T01:41:36;101359.44;;;17.81;64.38
9110;BME280;4590;51.462;6.692;2023-05-07T01:44:03;101353.53;;;17.83;64.09
9110;BME280;4590;51.462;6.692;2023-05-07T01:46:31;101355.97;;;17.84;64.06
9110;BME280;4590;51.462;6.692;2023-05-07T01:48:56;101364.34;;;17.84;64.21
9110;BME280;4590;51.462;6.692;2023-05-07T01:51:21;101364.34;;;17.84;64.22
9110;BME280;4590;51.462;6.692;2023-05-07T01:53:47;101357.59;;;17.85;64.26
9110;BME280;4590;51.462;6.692;2023-05-07T01:56:16;101358.44;;;17.86;64.56
9110;BME280;4590;51.462;6.692;2023-05-07T01:58:42;101366.44;;;17.87;64.21
9110;BME280;4590;51.462;6.692;2023-05-07T02:01:07;101366.44;;;17.87;64.27
9110;BME280;4590;51.462;6.692;2023-05-07T02:03:32;101364.47;;;17.88;64.17
9110;BME280;4590;51.462;6.692;2023-05-07T02:05:58;101365.63;;;17.87;64.21
9110;BME280;4590;51.462;6.692;2023-05-07T02:08:23;101360.06;;;17.87;64.66
9110;BME280;4590;51.462;6.692;2023-05-07T02:10:48;101360.41;;;17.85;64.33
9110;BME280;4590;51.462;6.692;2023-05-07T02:20:07;101356.75;;;17.73;64.19
9110;BME280;4590;51.462;6.692;2023-05-07T02:22:38;101354.63;;;17.70;64.50
9110;BME280;4590;51.462;6.692;2023-05-07T02:25:03;101360.88;;;17.67;64.64
9110;BME280;4590;51.462;6.692;2023-05-07T02:27:29;101364.00;;;17.65;64.51
9110;BME280;4590;51.462;6.692;2023-05-07T02:29:54;101360.69;;;17.63;64.51
9110;BME280;4590;51.462;6.692;2023-05-07T02:32:19;101359.75;;;17.59;64.76
9110;BME280;4590;51.462;6.692;2023-05-07T02:34:45;101349.63;;;17.54;64.99
9110;BME280;4590;51.462;6.692;2023-05-07T02:44:02;101363.66;;;17.37;65.55
9110;BME280;4590;51.462;6.692;2023-05-07T02:46:30;101361.22;;;17.36;65.50
9110;BME280;4590;51.462;6.692;2023-05-07T02:48:55;101355.50;;;17.32;66.02
9110;BME280;4590;51.462;6.692;2023-05-07T02:51:21;101354.25;;;17.30;66.11
9110;BME280;4590;51.462;6.692;2023-05-07T02:53:47;101354.44;;;17.25;66.35
9110;BME280;4590;51.462;6.692;2023-05-07T02:56:12;101351.81;;;17.19;66.33
9110;BME280;4590;51.462;6.692;2023-05-07T02:58:38;101357.59;;;17.14;66.51
9110;BME280;4590;51.462;6.692;2023-05-07T03:01:21;101351.91;;;17.02;67.14
9110;BME280;4590;51.462;6.692;2023-05-07T03:03:46;101345.88;;;17.00;67.03
9110;BME280;4590;51.462;6.692;2023-05-07T03:06:11;101351.31;;;16.97;67.12
9110;BME280;4590;51.462;6.692;2023-05-07T03:08:50;101363.44;;;16.92;67.63
9110;BME280;4590;51.462;6.692;2023-05-07T03:11:15;101361.94;;;16.95;67.32
9110;BME280;4590;51.462;6.692;2023-05-07T03:13:40;101366.03;;;16.97;67.48
9110;BME280;4590;51.462;6.692;2023-05-07T03:16:33;101366.03;;;16.97;67.72
9110;BME280;4590;51.462;6.692;2023-05-07T03:19:06;101362.56;;;17.00;67.51
9110;BME280;4590;51.462;6.692;2023-05-07T03:21:31;101366.31;;;17.04;67.47
9110;BME280;4590;51.462;6.692;2023-05-07T03:23:59;101358.19;;;16.99;67.58
9110;BME280;4590;51.462;6.692;2023-05-07T03:26:24;101359.31;;;16.98;67.80
9110;BME280;4590;51.462;6.692;2023-05-07T03:28:50;101357.69;;;16.97;67.64
9110;BME280;4590;51.462;6.692;2023-05-07T03:31:35;101347.56;;;16.93;67.95
9110;BME280;4590;51.462;6.692;2023-05-07T03:34:06;101351.50;;;16.92;68.10
9110;BME280;4590;51.462;6.692;2023-05-07T03:36:32;101346.75;;;16.92;67.94
9110;BME280;4590;51.462;6.692;2023-05-07T03:38:57;101344.44;;;16.94;68.15
9110;BME280;4590;51.462;6.692;2023-05-07T03:41:22;101345.59;;;16.93;68.03
9110;BME280;4590;51.462;6.692;2023-05-07T03:43:48;101348.88;;;16.95;68.65
9110;BME280;4590;51.462;6.692;2023-05-07T03:46:13;101350.16;;;16.98;68.31
9110;BME280;4590;51.462;6.692;2023-05-07T03:48:38;101351.09;;;17.02;68.02
9110;BME280;4590;51.462;6.692;2023-05-07T03:51:03;101351.25;;;17.05;68.07
9110;BME280;4590;51.462;6.692;2023-05-07T03:53:33;101345.69;;;17.05;67.77
9110;BME280;4590;51.462;6.692;2023-05-07T03:55:58;101354.84;;;17.06;67.62
9110;BME280;4590;51.462;6.692;2023-05-07T03:58:23;101354.38;;;17.04;68.00
9110;BME280;4590;51.462;6.692;2023-05-07T04:00:49;101346.25;;;16.99;68.02
9110;BME280;4590;51.462;6.692;2023-05-07T04:03:14;101353.75;;;16.98;68.19
9110;BME280;4590;51.462;6.692;2023-05-07T04:05:40;101358.19;;;16.99;68.18
9110;BME280;4590;51.462;6.692;2023-05-07T04:08:05;101356.66;;;17.02;68.28
9110;BME280;4590;51.462;6.692;2023-05-07T04:10:31;101363.03;;;17.02;68.05
9110;BME280;4590;51.462;6.692;2023-05-07T04:12:56;101366.97;;;17.01;68.31
9110;BME280;4590;51.462;6.692;2023-05-07T04:15:22;101363.25;;;16.97;68.05
9110;BME280;4590;51.462;6.692;2023-05-07T04:21:22;101368.69;;;16.85;68.38
9110;BME280;4590;51.462;6.692;2023-05-07T04:23:48;101364.75;;;16.86;68.42
9110;BME280;4590;51.462;6.692;2023-05-07T04:26:13;101357.94;;;16.83;68.54
9110;BME280;4590;51.462;6.692;2023-05-07T04:28:48;101364.97;;;16.81;68.66
9110;BME280;4590;51.462;6.692;2023-05-07T04:31:19;101373.28;;;16.81;68.73
9110;BME280;4590;51.462;6.692;2023-05-07T04:33:44;101373.78;;;16.83;68.90
9110;BME280;4590;51.462;6.692;2023-05-07T04:36:10;101372.63;;;16.84;68.54
9110;BME280;4590;51.462;6.692;2023-05-07T04:38:36;101375.88;;;16.86;68.71
9110;BME280;4590;51.462;6.692;2023-05-07T04:41:05;101378.31;;;16.88;68.78
9110;BME280;4590;51.462;6.692;2023-05-07T04:43:31;101382.41;;;16.90;68.98
9110;BME280;4590;51.462;6.692;2023-05-07T04:46:15;101369.16;;;16.87;69.22
9110;BME280;4590;51.462;6.692;2023-05-07T04:48:41;101372.25;;;16.94;69.07
9110;BME280;4590;51.462;6.692;2023-05-07T04:51:06;101369.63;;;16.98;68.98
9110;BME280;4590;51.462;6.692;2023-05-07T04:53:31;101368.13;;;17.00;69.08
9110;BME280;4590;51.462;6.692;2023-05-07T04:56:01;101370.13;;;17.00;68.93
9110;BME280;4590;51.462;6.692;2023-05-07T04:58:27;101370.56;;;17.02;68.79
9110;BME280;4590;51.462;6.692;2023-05-07T05:00:52;101364.88;;;16.98;68.93
9110;BME280;4590;51.462;6.692;2023-05-07T05:03:17;101369.16;;;16.96;68.96
9110;BME280;4590;51.462;6.692;2023-05-07T05:05:43;101372.25;;;16.94;69.08
9110;BME280;4590;51.462;6.692;2023-05-07T05:08:22;101370.47;;;16.90;69.27
9110;BME280;4590;51.462;6.692;2023-05-07T05:10:47;101370.13;;;16.91;69.39
9110;BME280;4590;51.462;6.692;2023-05-07T05:13:14;101370.13;;;16.91;69.22
9110;BME280;4590;51.462;6.692;2023-05-07T05:19:06;101379.13;;;16.97;69.59
9110;BME280;4590;51.462;6.692;2023-05-07T05:21:31;101378.09;;;17.01;69.38
9110;BME280;4590;51.462;6.692;2023-05-07T05:23:58;101369.09;;;17.04;69.39
9110;BME280;4590;51.462;6.692;2023-05-07T05:26:23;101384.63;;;17.05;69.10
9110;BME280;4590;51.462;6.692;2023-05-07T05:28:48;101378.56;;;17.03;69.27
9110;BME280;4590;51.462;6.692;2023-05-07T05:31:30;101389.91;;;16.98;69.40
9110;BME280;4590;51.462;6.692;2023-05-07T05:33:55;101384.94;;;17.04;69.35
9110;BME280;4590;51.462;6.692;2023-05-07T05:36:20;101384.78;;;17.09;69.57
9110;BME280;4590;51.462;6.692;2023-05-07T05:38:46;101383.28;;;17.11;69.38
9110;BME280;4590;51.462;6.692;2023-05-07T05:41:13;101381.94;;;17.17;69.21
9110;BME280;4590;51.462;6.692;2023-05-07T05:43:38;101392.41;;;17.21;69.43
9110;BME280;4590;51.462;6.692;2023-05-07T05:46:03;101397.00;;;17.16;69.76
9110;BME280;4590;51.462;6.692;2023-05-07T05:48:35;101404.50;;;17.25;69.47
9110;BME280;4590;51.462;6.692;2023-05-07T05:51:00;101410.06;;;17.25;69.96
9110;BME280;4590;51.462;6.692;2023-05-07T05:53:25;101400.97;;;17.36;69.53
9110;BME280;4590;51.462;6.692;2023-05-07T05:55:51;101403.56;;;17.41;69.77
9110;BME280;4590;51.462;6.692;2023-05-07T05:58:16;101399.06;;;17.58;69.17
9110;BME280;4590;51.462;6.692;2023-05-07T06:00:41;101395.22;;;17.71;68.75
9110;BME280;4590;51.462;6.692;2023-05-07T06:03:07;101404.47;;;17.83;68.88
9110;BME280;4590;51.462;6.692;2023-05-07T06:05:32;101405.00;;;17.98;68.63
9110;BME280;4590;51.462;6.692;2023-05-07T06:07:57;101410.38;;;18.03;67.96
9110;BME280;4590;51.462;6.692;2023-05-07T06:10:22;101398.81;;;18.13;67.90
9110;BME280;4590;51.462;6.692;2023-05-07T06:12:49;101404.25;;;18.09;67.05
9110;BME280;4590;51.462;6.692;2023-05-07T06:18:40;101407.00;;;18.30;66.83
9110;BME280;4590;51.462;6.692;2023-05-07T06:21:05;101404.81;;;18.36;66.47
9110;BME280;4590;51.462;6.692;2023-05-07T06:23:31;101408.75;;;18.35;66.63
9110;BME280;4590;51.462;6.692;2023-05-07T06:26:14;101419.97;;;18.26;65.30
9110;BME280;4590;51.462;6.692;2023-05-07T06:28:39;101421.69;;;18.39;66.10
9110;BME280;4590;51.462;6.692;2023-05-07T06:31:14;101430.72;;;18.36;65.40
9110;BME280;4590;51.462;6.692;2023-05-07T06:34:00;101425.38;;;18.43;65.64
9110;BME280;4590;51.462;6.692;2023-05-07T06:36:27;101420.28;;;18.45;65.54
9110;BME280;4590;51.462;6.692;2023-05-07T06:38:52;101427.34;;;18.43;64.99
9110;BME280;4590;51.462;6.692;2023-05-07T06:41:18;101422.59;;;18.43;65.09
9110;BME280;4590;51.462;6.692;2023-05-07T06:43:43;101417.28;;;18.50;65.10
9110;BME280;4590;51.462;6.692;2023-05-07T06:46:08;101417.78;;;18.52;64.59
9110;BME280;4590;51.462;6.692;2023-05-07T06:48:33;101421.50;;;18.56;64.43
9110;BME280;4590;51.462;6.692;2023-05-07T06:54:23;101425.16;;;18.69;64.02
9110;BME280;4590;51.462;6.692;2023-05-07T06:56:48;101430.16;;;18.76;64.09
9110;BME280;4590;51.462;6.692;2023-05-07T06:59:13;101418.31;;;18.79;63.44
9110;BME280;4590;51.462;6.692;2023-05-07T07:01:39;101423.69;;;18.84;63.09
9110;BME280;4590;51.462;6.692;2023-05-07T07:04:04;101424.25;;;18.89;63.00
9110;BME280;4590;51.462;6.692;2023-05-07T07:06:29;101423.22;;;18.94;63.20
9110;BME280;4590;51.462;6.692;2023-05-07T07:08:56;101430.56;;;18.99;62.72
9110;BME280;4590;51.462;6.692;2023-05-07T07:11:22;101423.69;;;18.96;62.69
9110;BME280;4590;51.462;6.692;2023-05-07T07:13:47;101420.69;;;19.01;62.09
9110;BME280;4590;51.462;6.692;2023-05-07T07:16:12;101419.28;;;19.07;62.02
9110;BME280;4590;51.462;6.692;2023-05-07T07:18:38;101422.41;;;19.06;61.97
9110;BME280;4590;51.462;6.692;2023-05-07T07:21:03;101420.34;;;19.15;61.91
9110;BME280;4590;51.462;6.692;2023-05-07T07:23:29;101421.28;;;19.19;61.57
9110;BME280;4590;51.462;6.692;2023-05-07T07:25:59;101426.63;;;19.24;61.33
9110;BME280;4590;51.462;6.692;2023-05-07T07:28:24;101424.91;;;19.32;61.42
9110;BME280;4590;51.462;6.692;2023-05-07T07:30:50;101417.56;;;19.39;61.02
9110;BME280;4590;51.462;6.692;2023-05-07T07:33:41;101419.56;;;19.51;60.93
9110;BME280;4590;51.462;6.692;2023-05-07T07:36:06;101423.28;;;19.67;60.64
9110;BME280;4590;51.462;6.692;2023-05-07T07:38:32;101421.41;;;19.59;60.58
9110;BME280;4590;51.462;6.692;2023-05-07T07:40:57;101430.13;;;19.82;59.82
9110;BME280;4590;51.462;6.692;2023-05-07T07:43:23;101423.72;;;19.81;57.93
9110;BME280;4590;51.462;6.692;2023-05-07T07:45:48;101430.19;;;19.98;59.79
9110;BME280;4590;51.462;6.692;2023-05-07T07:48:20;101438.56;;;19.98;58.43
9110;BME280;4590;51.462;6.692;2023-05-07T07:50:48;101425.84;;;20.12;59.09
9110;BME280;4590;51.462;6.692;2023-05-07T07:53:14;101431.56;;;20.31;59.27
9110;BME280;4590;51.462;6.692;2023-05-07T07:55:41;101434.72;;;20.42;58.23
9110;BME280;4590;51.462;6.692;2023-05-07T07:58:06;101432.44;;;20.76;59.30
9110;BME280;4590;51.462;6.692;2023-05-07T08:00:31;101439.94;;;20.87;56.21
9110;BME280;4590;51.462;6.692;2023-05-07T08:02:56;101432.72;;;21.18;57.82
9110;BME280;4590;51.462;6.692;2023-05-07T08:05:22;101439.78;;;21.27;55.09
9110;BME280;4590;51.462;6.692;2023-05-07T08:07:47;101438.41;;;21.53;56.85
9110;BME280;4590;51.462;6.692;2023-05-07T08:10:18;101434.59;;;21.61;54.81
9110;BME280;4590;51.462;6.692;2023-05-07T08:12:49;101440.53;;;21.75;53.95
9110;BME280;4590;51.462;6.692;2023-05-07T08:15:15;101444.03;;;21.88;53.45
9110;BME280;4590;51.462;6.692;2023-05-07T08:17:40;101446.13;;;21.75;50.47
9110;BME280;4590;51.462;6.692;2023-05-07T08:20:06;101450.41;;;21.88;53.29
9110;BME280;4590;51.462;6.692;2023-05-07T08:22:33;101444.03;;;21.88;52.76
9110;BME280;4590;51.462;6.692;2023-05-07T08:24:59;101444.81;;;21.88;52.48
9110;BME280;4590;51.462;6.692;2023-05-07T08:27:25;101447.03;;;21.79;50.44
9110;BME280;4590;51.462;6.692;2023-05-07T08:29:50;101448.53;;;21.92;52.38
9110;BME280;4590;51.462;6.692;2023-05-07T08:32:15;101442.88;;;21.73;50.57
9110;BME280;4590;51.462;6.692;2023-05-07T08:34:41;101444.81;;;21.88;52.18
9110;BME280;4590;51.462;6.692;2023-05-07T08:37:06;101448.19;;;21.78;50.13
9110;BME280;4590;51.462;6.692;2023-05-07T08:39:31;101446.91;;;21.91;52.15
9110;BME280;4590;51.462;6.692;2023-05-07T08:41:59;101446.06;;;21.72;50.60
9110;BME280;4590;51.462;6.692;2023-05-07T08:44:26;101453.75;;;21.94;52.15
9110;BME280;4590;51.462;6.692;2023-05-07T08:46:56;101451.59;;;22.03;51.41
9110;BME280;4590;51.462;6.692;2023-05-07T08:49:21;101450.41;;;22.04;51.55
9110;BME280;4590;51.462;6.692;2023-05-07T08:51:47;101446.25;;;21.98;50.42
9110;BME280;4590;51.462;6.692;2023-05-07T08:54:15;101445.25;;;22.06;51.40
9110;BME280;4590;51.462;6.692;2023-05-07T08:56:41;101453.75;;;22.29;51.07
9110;BME280;4590;51.462;6.692;2023-05-07T08:59:06;101451.22;;;22.24;48.21
9110;BME280;4590;51.462;6.692;2023-05-07T09:01:31;101449.53;;;22.58;50.71
9110;BME280;4590;51.462;6.692;2023-05-07T09:03:58;101447.81;;;22.72;49.14
9110;BME280;4590;51.462;6.692;2023-05-07T09:06:23;101448.34;;;23.01;50.53
9110;BME280;4590;51.462;6.692;2023-05-07T09:08:50;101445.94;;;23.22;49.74
9110;BME280;4590;51.462;6.692;2023-05-07T09:11:16;101447.84;;;23.41;49.79
9110;BME280;4590;51.462;6.692;2023-05-07T09:13:42;101445.94;;;23.49;49.21
9110;BME280;4590;51.462;6.692;2023-05-07T09:16:11;101439.59;;;23.78;49.05
9110;BME280;4590;51.462;6.692;2023-05-07T09:18:43;101434.97;;;23.93;47.10
9110;BME280;4590;51.462;6.692;2023-05-07T09:21:10;101433.59;;;24.09;48.16
9110;BME280;4590;51.462;6.692;2023-05-07T09:23:36;101433.38;;;24.22;47.95
9110;BME280;4590;51.462;6.692;2023-05-07T09:26:01;101438.78;;;24.34;48.04
9110;BME280;4590;51.462;6.692;2023-05-07T09:28:27;101450.25;;;24.52;47.65
9110;BME280;4590;51.462;6.692;2023-05-07T09:30:52;101442.13;;;24.46;45.04
9110;BME280;4590;51.462;6.692;2023-05-07T09:33:17;101432.84;;;24.79;46.32
9110;BME280;4590;51.462;6.692;2023-05-07T09:35:43;101440.56;;;24.90;45.84
9110;BME280;4590;51.462;6.692;2023-05-07T09:38:08;101438.69;;;24.97;45.57
9110;BME280;4590;51.462;6.692;2023-05-07T09:40:33;101440.47;;;25.16;45.03
9110;BME280;4590;51.462;6.692;2023-05-07T09:43:11;101442.53;;;25.23;44.65
9110;BME280;4590;51.462;6.692;2023-05-07T09:45:37;101440.53;;;25.23;44.50
9110;BME280;4590;51.462;6.692;2023-05-07T09:48:05;101442.53;;;25.23;44.60
9110;BME280;4590;51.462;6.692;2023-05-07T09:50:41;101442.06;;;25.13;43.49
9110;BME280;4590;51.462;6.692;2023-05-07T09:53:11;101438.84;;;25.15;44.11
9110;BME280;4590;51.462;6.692;2023-05-07T09:55:37;101440.41;;;25.09;44.25
9110;BME280;4590;51.462;6.692;2023-05-07T09:58:04;101442.81;;;25.10;44.64
9110;BME280;4590;51.462;6.692;2023-05-07T10:00:30;101434.00;;;25.12;44.48
9110;BME280;4590;51.462;6.692;2023-05-07T10:02:57;101429.25;;;25.23;44.66
9110;BME280;4590;51.462;6.692;2023-05-07T10:05:23;101428.94;;;25.35;44.61
9110;BME280;4590;51.462;6.692;2023-05-07T10:07:49;101438.22;;;25.39;43.88
9110;BME280;4590;51.462;6.692;2023-05-07T10:10:15;101436.63;;;25.38;42.34
9110;BME280;4590;51.462;6.692;2023-05-07T10:12:41;101438.72;;;25.48;42.34
9110;BME280;4590;51.462;6.692;2023-05-07T10:15:10;101429.19;;;25.64;42.64
9110;BME280;4590;51.462;6.692;2023-05-07T10:17:37;101433.31;;;25.84;42.44
9110;BME280;4590;51.462;6.692;2023-05-07T10:20:04;101437.88;;;26.03;42.13
9110;BME280;4590;51.462;6.692;2023-05-07T10:22:41;101429.06;;;26.18;41.77
9110;BME280;4590;51.462;6.692;2023-05-07T10:25:14;101437.59;;;26.26;40.00
9110;BME280;4590;51.462;6.692;2023-05-07T10:27:42;101433.16;;;26.28;41.19
9110;BME280;4590;51.462;6.692;2023-05-07T10:33:03;101433.38;;;25.91;40.00
9110;BME280;4590;51.462;6.692;2023-05-07T10:35:36;101432.63;;;26.01;41.66
9110;BME280;4590;51.462;6.692;2023-05-07T10:38:03;101441.91;;;26.05;41.72
9110;BME280;4590;51.462;6.692;2023-05-07T10:40:30;101431.47;;;26.09;41.22
9110;BME280;4590;51.462;6.692;2023-05-07T10:43:00;101430.69;;;26.19;41.21
9110;BME280;4590;51.462;6.692;2023-05-07T10:45:26;101436.34;;;26.23;41.63
9110;BME280;4590;51.462;6.692;2023-05-07T10:48:11;101427.84;;;26.12;40.12
9110;BME280;4590;51.462;6.692;2023-05-07T10:50:40;101426.66;;;26.20;40.98
9110;BME280;4590;51.462;6.692;2023-05-07T10:55:45;101430.75;;;26.27;40.61
9110;BME280;4590;51.462;6.692;2023-05-07T10:58:24;101434.25;;;26.02;39.66
9110;BME280;4590;51.462;6.692;2023-05-07T11:00:57;101436.63;;;26.00;40.71
9110;BME280;4590;51.462;6.692;2023-05-07T11:03:23;101428.53;;;25.88;40.76
9110;BME280;4590;51.462;6.692;2023-05-07T11:06:08;101430.81;;;25.68;40.86
9110;BME280;4590;51.462;6.692;2023-05-07T11:11:18;101424.63;;;25.52;41.99
9110;BME280;4590;51.462;6.692;2023-05-07T11:13:46;101424.59;;;25.45;41.77
9110;BME280;4590;51.462;6.692;2023-05-07T11:16:18;101419.72;;;25.38;41.54
9110;BME280;4590;51.462;6.692;2023-05-07T11:18:52;101424.06;;;25.29;41.56
9110;BME280;4590;51.462;6.692;2023-05-07T11:21:40;101411.94;;;25.21;41.74
9110;BME280;4590;51.462;6.692;2023-05-07T11:24:10;101421.22;;;25.25;42.19
9110;BME280;4590;51.462;6.692;2023-05-07T11:26:49;101424.47;;;25.27;41.79
9110;BME280;4590;51.462;6.692;2023-05-07T11:29:17;101422.91;;;25.37;41.65
9110;BME280;4590;51.462;6.692;2023-05-07T11:31:42;101424.97;;;25.40;41.87
9110;BME280;4590;51.462;6.692;2023-05-07T11:34:08;101413.75;;;25.47;42.05
9110;BME280;4590;51.462;6.692;2023-05-07T11:36:35;101419.41;;;25.54;41.48
9110;BME280;4590;51.462;6.692;2023-05-07T11:39:06;101427.91;;;25.58;41.41
9110;BME280;4590;51.462;6.692;2023-05-07T11:41:37;101425.44;;;25.52;40.78
9110;BME280;4590;51.462;6.692;2023-05-07T11:44:02;101421.81;;;25.48;41.03
9110;BME280;4590;51.462;6.692;2023-05-07T11:46:28;101435.88;;;25.45;41.36
9110;BME280;4590;51.462;6.692;2023-05-07T11:48:54;101419.69;;;25.31;40.86
9110;BME280;4590;51.462;6.692;2023-05-07T11:51:21;101438.22;;;25.39;40.98
9110;BME280;4590;51.462;6.692;2023-05-07T11:53:46;101426.53;;;25.37;41.03
9110;BME280;4590;51.462;6.692;2023-05-07T11:56:14;101430.16;;;25.38;41.10
9110;BME280;4590;51.462;6.692;2023-05-07T11:58:41;101421.28;;;25.32;40.90
9110;BME280;4590;51.462;6.692;2023-05-07T12:01:10;101428.53;;;25.33;40.68
9110;BME280;4590;51.462;6.692;2023-05-07T12:03:37;101438.59;;;25.34;40.36
9110;BME280;4590;51.462;6.692;2023-05-07T12:06:02;101428.53;;;25.33;40.50
9110;BME280;4590;51.462;6.692;2023-05-07T12:08:30;101430.13;;;25.31;40.91
9110;BME280;4590;51.462;6.692;2023-05-07T12:10:55;101430.47;;;25.26;40.75
9110;BME280;4590;51.462;6.692;2023-05-07T12:13:22;101432.88;;;25.24;40.33
9110;BME280;4590;51.462;6.692;2023-05-07T12:15:51;101438.84;;;25.18;40.22
9110;BME280;4590;51.462;6.692;2023-05-07T12:18:17;101424.78;;;25.18;40.70
9110;BME280;4590;51.462;6.692;2023-05-07T12:20:43;101437.28;;;25.21;40.92
9110;BME280;4590;51.462;6.692;2023-05-07T12:23:09;101434.50;;;25.25;40.95
9110;BME280;4590;51.462;6.692;2023-05-07T12:25:39;101436.94;;;25.26;40.92
9110;BME280;4590;51.462;6.692;2023-05-07T12:28:05;101430.47;;;25.26;40.62
9110;BME280;4590;51.462;6.692;2023-05-07T12:30:38;101438.84;;;25.15;40.68
9110;BME280;4590;51.462;6.692;2023-05-07T12:33:03;101432.41;;;25.14;40.79
9110;BME280;4590;51.462;6.692;2023-05-07T12:35:36;101435.97;;;25.08;41.00
9110;BME280;4590;51.462;6.692;2023-05-07T12:38:08;101433.94;;;25.08;40.90
9110;BME280;4590;51.462;6.692;2023-05-07T12:40:41;101435.53;;;25.02;40.45
9110;BME280;4590;51.462;6.692;2023-05-07T12:43:07;101435.53;;;25.06;40.88
9110;BME280;4590;51.462;6.692;2023-05-07T12:45:38;101431.47;;;25.00;40.20
9110;BME280;4590;51.462;6.692;2023-05-07T12:48:04;101446.38;;;25.00;40.70
9110;BME280;4590;51.462;6.692;2023-05-07T12:50:33;101436.25;;;24.96;40.29
9110;BME280;4590;51.462;6.692;2023-05-07T12:52:58;101440.28;;;24.95;40.57
9110;BME280;4590;51.462;6.692;2023-05-07T12:55:24;101442.63;;;24.93;40.55
9110;BME280;4590;51.462;6.692;2023-05-07T12:57:50;101440.63;;;24.93;40.58
9110;BME280;4590;51.462;6.692;2023-05-07T13:00:16;101441.47;;;24.94;40.84
9110;BME280;4590;51.462;6.692;2023-05-07T13:02:43;101447.44;;;24.92;40.70
9110;BME280;4590;51.462;6.692;2023-05-07T13:05:12;101444.22;;;24.90;41.57
9110;BME280;4590;51.462;6.692;2023-05-07T13:07:37;101447.84;;;24.91;41.66
9110;BME280;4590;51.462;6.692;2023-05-07T13:10:03;101445.78;;;24.88;41.23
9110;BME280;4590;51.462;6.692;2023-05-07T13:12:29;101448.19;;;24.86;41.50
9110;BME280;4590;51.462;6.692;2023-05-07T13:14:54;101449.78;;;24.83;41.87
9110;BME280;4590;51.462;6.692;2023-05-07T13:17:20;101443.69;;;24.77;41.91
9110;BME280;4590;51.462;6.692;2023-05-07T13:19:45;101455.69;;;24.74;41.95
9110;BME280;4590;51.462;6.692;2023-05-07T13:22:10;101452.47;;;24.72;42.07
9110;BME280;4590;51.462;6.692;2023-05-07T13:24:36;101457.66;;;24.67;42.08
9110;BME280;4590;51.462;6.692;2023-05-07T13:27:01;101455.97;;;24.62;41.97
9110;BME280;4590;51.462;6.692;2023-05-07T13:29:26;101461.13;;;24.57;42.44
9110;BME280;4590;51.462;6.692;2023-05-07T13:31:56;101465.13;;;24.56;42.46
9110;BME280;4590;51.462;6.692;2023-05-07T13:34:22;101469.56;;;24.53;42.99
9110;BME280;4590;51.462;6.692;2023-05-07T13:36:47;101469.13;;;24.51;43.41
9110;BME280;4590;51.462;6.692;2023-05-07T13:39:12;101464.63;;;24.46;43.39
9110;BME280;4590;51.462;6.692;2023-05-07T13:41:38;101470.22;;;24.43;43.44
9110;BME280;4590;51.462;6.692;2023-05-07T13:44:03;101463.75;;;24.39;43.72
9110;BME280;4590;51.462;6.692;2023-05-07T13:46:28;101465.75;;;24.38;43.73
9110;BME280;4590;51.462;6.692;2023-05-07T13:48:55;101474.19;;;24.38;44.30
9110;BME280;4590;51.462;6.692;2023-05-07T13:51:20;101473.34;;;24.34;44.32
9110;BME280;4590;51.462;6.692;2023-05-07T13:53:45;101481.28;;;24.29;44.36
9110;BME280;4590;51.462;6.692;2023-05-07T13:56:11;101481.94;;;24.19;44.45
9110;BME280;4590;51.462;6.692;2023-05-07T14:12:21;101492.34;;;23.62;45.35
9110;BME280;4590;51.462;6.692;2023-05-07T14:14:48;101489.69;;;23.50;45.76